Time;durP1;ratioP1;P1;durP2;ratioP2;P2;SDS_P1;SDS_P2;PMS_P1;PMS_P2;Temp;Humidity;BMP_temperature;BMP_pressure;BME280_temperature;BME280_humidity;BME280_pressure;Samples;Min_cycle;Max_cycle;Signal;HPM_P1;HPM_P2
2022/09/02 00:02:16;;;;;;;6.32;3.65;;;;;;;;;;4989836;28;20030;-79
2022/09/02 00:04:42;;;;;;;7.13;3.72;;;;;;;;;;4986614;28;20065;-78
2022/09/02 00:07:08;;;;;;;5.80;3.22;;;;;;;;;;4982589;28;20098;-79
2022/09/02 00:09:36;;;;;;;8.07;3.63;;;;;;;;;;4987412;28;20070;-79
2022/09/02 00:12:03;;;;;;;8.20;3.85;;;;;;;;;;4975114;28;20053;-79
2022/09/02 00:14:31;;;;;;;8.23;3.72;;;;;;;;;;4977156;28;20054;-79
2022/09/02 00:16:59;;;;;;;6.63;3.85;;;;;;;;;;4978800;28;20089;-78
2022/09/02 00:19:26;;;;;;;7.50;4.13;;;;;;;;;;4980388;28;20058;-79
2022/09/02 00:21:53;;;;;;;9.30;4.38;;;;;;;;;;4985565;28;20030;-79
2022/09/02 00:24:20;;;;;;;9.60;5.03;;;;;;;;;;4981662;28;20487;-78
2022/09/02 00:26:46;;;;;;;8.88;4.60;;;;;;;;;;4979295;28;20038;-78
2022/09/02 00:29:13;;;;;;;7.07;4.40;;;;;;;;;;4986969;28;20030;-79
2022/09/02 00:31:41;;;;;;;7.10;4.70;;;;;;;;;;4986284;28;20535;-79
2022/09/02 00:34:08;;;;;;;9.27;5.07;;;;;;;;;;4982539;28;20740;-79
2022/09/02 00:36:34;;;;;;;10.02;4.47;;;;;;;;;;4984099;28;20543;-79
2022/09/02 00:39:00;;;;;;;7.03;4.03;;;;;;;;;;4983903;28;20034;-79
2022/09/02 00:41:27;;;;;;;6.85;4.13;;;;;;;;;;4978675;28;20503;-79
2022/09/02 00:43:58;;;;;;;6.10;4.10;;;;;;;;;;4987523;28;20046;-79
2022/09/02 00:46:25;;;;;;;8.30;4.45;;;;;;;;;;4970608;28;20055;-79
2022/09/02 00:49:09;;;;;;;9.27;4.88;;;;;;;;;;4989397;28;20110;-79
2022/09/02 00:51:41;;;;;;;9.27;4.45;;;;;;;;;;4987472;28;20043;-79
2022/09/02 00:54:08;;;;;;;7.82;4.47;;;;;;;;;;4992799;28;20034;-79
2022/09/02 00:56:36;;;;;;;7.78;4.13;;;;;;;;;;4993320;28;20049;-79
2022/09/02 00:59:02;;;;;;;8.85;4.30;;;;;;;;;;4985045;28;20034;-79
2022/09/02 01:01:28;;;;;;;8.93;4.32;;;;;;;;;;4981453;28;20031;-79
2022/09/02 01:03:55;;;;;;;6.95;3.28;;;;;;;;;;4992522;28;20054;-78
2022/09/02 01:06:23;;;;;;;7.97;3.65;;;;;;;;;;4990474;28;20043;-79
2022/09/02 01:08:53;;;;;;;6.03;3.47;;;;;;;;;;4984106;28;20411;-81
2022/09/02 01:11:20;;;;;;;6.47;3.40;;;;;;;;;;4984819;28;20027;-79
2022/09/02 01:13:46;;;;;;;5.55;4.13;;;;;;;;;;4986642;28;20120;-79
2022/09/02 01:16:16;;;;;;;7.00;4.45;;;;;;;;;;4992618;28;20041;-79
2022/09/02 01:18:45;;;;;;;8.35;4.43;;;;;;;;;;4988366;28;20475;-78
2022/09/02 01:21:12;;;;;;;7.15;4.00;;;;;;;;;;4981580;28;20526;-79
2022/09/02 01:23:38;;;;;;;6.60;4.07;;;;;;;;;;4991704;28;20026;-79
2022/09/02 01:26:06;;;;;;;7.95;4.57;;;;;;;;;;4992354;28;20042;-78
2022/09/02 01:28:33;;;;;;;7.28;4.43;;;;;;;;;;4986744;28;20547;-79
2022/09/02 01:31:00;;;;;;;8.95;3.90;;;;;;;;;;4992579;28;20092;-79
2022/09/02 01:33:26;;;;;;;6.05;3.30;;;;;;;;;;4985357;28;20560;-79
2022/09/02 01:35:53;;;;;;;5.03;3.03;;;;;;;;;;4973482;28;20043;-79
2022/09/02 01:38:19;;;;;;;6.32;3.72;;;;;;;;;;4984801;28;20390;-79
2022/09/02 01:40:45;;;;;;;8.23;3.75;;;;;;;;;;4992235;28;20129;-81
2022/09/02 01:43:13;;;;;;;7.63;4.55;;;;;;;;;;4989600;28;20054;-80
2022/09/02 01:45:41;;;;;;;5.50;3.38;;;;;;;;;;4981002;28;20069;-81
2022/09/02 01:48:08;;;;;;;8.57;4.10;;;;;;;;;;4991903;28;20038;-79
2022/09/02 01:50:35;;;;;;;6.47;3.88;;;;;;;;;;4977425;28;20046;-79
2022/09/02 01:53:02;;;;;;;6.25;4.22;;;;;;;;;;4986689;28;20022;-79
2022/09/02 01:55:28;;;;;;;10.90;4.40;;;;;;;;;;4991855;28;20396;-79
2022/09/02 01:57:54;;;;;;;8.60;3.78;;;;;;;;;;4974961;28;20034;-79
2022/09/02 02:00:21;;;;;;;8.35;4.55;;;;;;;;;;4983552;28;20038;-79
2022/09/02 02:02:48;;;;;;;9.00;4.35;;;;;;;;;;4987821;28;20027;-81
2022/09/02 02:05:14;;;;;;;8.48;4.10;;;;;;;;;;4976239;28;20034;-81
2022/09/02 02:07:41;;;;;;;11.57;4.25;;;;;;;;;;4991413;28;20030;-81
2022/09/02 02:10:09;;;;;;;7.63;3.95;;;;;;;;;;4988499;28;20072;-81
2022/09/02 02:12:35;;;;;;;6.93;3.47;;;;;;;;;;4987070;28;20776;-81
2022/09/02 02:15:02;;;;;;;7.45;3.88;;;;;;;;;;4985893;28;20799;-81
2022/09/02 02:17:28;;;;;;;6.70;3.67;;;;;;;;;;4991460;28;20411;-81
2022/09/02 02:19:54;;;;;;;7.72;3.92;;;;;;;;;;4977618;28;20125;-81
2022/09/02 02:22:20;;;;;;;7.82;3.67;;;;;;;;;;4983385;28;20026;-81
2022/09/02 02:24:46;;;;;;;6.20;3.83;;;;;;;;;;4984742;28;20084;-81
2022/09/02 02:27:12;;;;;;;5.40;3.63;;;;;;;;;;4991073;28;20030;-81
2022/09/02 02:29:38;;;;;;;6.82;3.47;;;;;;;;;;4979789;28;20042;-81
2022/09/02 02:32:06;;;;;;;7.30;3.00;;;;;;;;;;4985166;28;20080;-81
2022/09/02 02:34:32;;;;;;;4.97;3.05;;;;;;;;;;4976049;28;20027;-81
2022/09/02 02:36:58;;;;;;;8.38;3.85;;;;;;;;;;4985517;28;20121;-81
2022/09/02 02:39:24;;;;;;;7.60;3.60;;;;;;;;;;4980920;28;20105;-80
2022/09/02 02:41:50;;;;;;;7.25;4.10;;;;;;;;;;4986822;28;20034;-80
2022/09/02 02:44:16;;;;;;;5.43;3.97;;;;;;;;;;4984066;28;20027;-80
2022/09/02 02:46:43;;;;;;;6.43;3.55;;;;;;;;;;4988037;28;20076;-80
2022/09/02 02:49:09;;;;;;;6.28;3.28;;;;;;;;;;4987966;28;20038;-80
2022/09/02 02:51:35;;;;;;;7.18;3.28;;;;;;;;;;4986844;28;20092;-80
2022/09/02 02:54:02;;;;;;;7.78;4.00;;;;;;;;;;4991092;28;20038;-80
2022/09/02 02:56:29;;;;;;;7.25;3.75;;;;;;;;;;4976576;28;20053;-80
2022/09/02 02:58:55;;;;;;;7.82;3.40;;;;;;;;;;4988922;28;20026;-80
2022/09/02 03:01:21;;;;;;;7.85;3.22;;;;;;;;;;4984885;28;20031;-80
2022/09/02 03:03:47;;;;;;;5.70;3.53;;;;;;;;;;4990290;28;20042;-79
2022/09/02 03:06:14;;;;;;;7.13;3.15;;;;;;;;;;4990726;28;20041;-80
2022/09/02 03:08:40;;;;;;;6.80;3.60;;;;;;;;;;4979471;28;20546;-80
2022/09/02 03:11:07;;;;;;;6.40;2.97;;;;;;;;;;4972873;28;20030;-80
2022/09/02 03:13:33;;;;;;;6.22;3.28;;;;;;;;;;4981722;28;20022;-81
2022/09/02 03:15:59;;;;;;;6.25;2.85;;;;;;;;;;4967329;28;20141;-81
2022/09/02 03:18:25;;;;;;;7.20;3.20;;;;;;;;;;4978184;28;20431;-81
2022/09/02 03:20:51;;;;;;;4.72;2.90;;;;;;;;;;4987435;28;20038;-80
2022/09/02 03:23:18;;;;;;;9.20;3.15;;;;;;;;;;4990284;28;20057;-80
2022/09/02 03:25:44;;;;;;;5.95;3.13;;;;;;;;;;4986759;28;20030;-80
2022/09/02 03:28:11;;;;;;;7.50;3.25;;;;;;;;;;4973604;28;20408;-81
2022/09/02 03:30:38;;;;;;;7.50;3.75;;;;;;;;;;4986992;28;20038;-81
2022/09/02 03:33:04;;;;;;;5.60;3.30;;;;;;;;;;4987247;28;20795;-80
2022/09/02 03:35:31;;;;;;;7.93;3.83;;;;;;;;;;4982387;28;20034;-80
2022/09/02 03:37:58;;;;;;;8.07;3.55;;;;;;;;;;4978488;28;20053;-81
2022/09/02 03:40:25;;;;;;;7.85;3.80;;;;;;;;;;4982614;28;20117;-81
2022/09/02 03:42:52;;;;;;;5.50;3.65;;;;;;;;;;4984978;28;20041;-79
2022/09/02 03:45:19;;;;;;;6.55;3.80;;;;;;;;;;4987502;28;20668;-81
2022/09/02 03:47:53;;;;;;;6.53;3.85;;;;;;;;;;4978131;28;20069;-80
2022/09/02 03:50:46;;;;;;;6.43;3.90;;;;;;;;;;4980189;28;20042;-81
2022/09/02 03:53:12;;;;;;;6.68;3.92;;;;;;;;;;4977960;28;20046;-81
2022/09/02 03:55:39;;;;;;;5.82;3.40;;;;;;;;;;4990398;28;20576;-81
2022/09/02 03:58:05;;;;;;;4.95;2.97;;;;;;;;;;4989534;28;20113;-80
2022/09/02 04:00:32;;;;;;;6.15;3.20;;;;;;;;;;4984046;28;20035;-80
2022/09/02 04:03:00;;;;;;;8.90;3.33;;;;;;;;;;4978303;28;20760;-81
2022/09/02 04:05:26;;;;;;;7.78;3.97;;;;;;;;;;4977288;28;20031;-81
2022/09/02 04:07:52;;;;;;;7.43;3.47;;;;;;;;;;4976180;28;20034;-81
2022/09/02 04:10:20;;;;;;;5.07;2.88;;;;;;;;;;4979561;28;20026;-80
2022/09/02 04:12:46;;;;;;;5.25;3.55;;;;;;;;;;4987659;28;20072;-81
2022/09/02 04:15:12;;;;;;;7.68;3.45;;;;;;;;;;4979591;28;20030;-81
2022/09/02 04:17:40;;;;;;;5.65;2.90;;;;;;;;;;4977495;28;20559;-81
2022/09/02 04:20:07;;;;;;;6.40;3.15;;;;;;;;;;4975163;28;20030;-81
2022/09/02 04:22:33;;;;;;;5.93;2.88;;;;;;;;;;4981796;28;20493;-81
2022/09/02 04:24:59;;;;;;;5.60;3.60;;;;;;;;;;4988186;28;20105;-81
2022/09/02 04:27:26;;;;;;;5.55;2.78;;;;;;;;;;4990948;28;20084;-81
2022/09/02 04:29:52;;;;;;;9.02;3.20;;;;;;;;;;4990966;28;20037;-80
2022/09/02 04:32:19;;;;;;;7.22;2.90;;;;;;;;;;4986305;28;20038;-81
2022/09/02 04:34:45;;;;;;;7.30;3.20;;;;;;;;;;4988382;28;20027;-81
2022/09/02 04:37:12;;;;;;;5.32;3.15;;;;;;;;;;4993788;28;20058;-81
2022/09/02 04:39:38;;;;;;;8.40;3.50;;;;;;;;;;4987230;28;20031;-81
2022/09/02 04:42:04;;;;;;;6.75;3.40;;;;;;;;;;4975316;28;20113;-80
2022/09/02 04:44:30;;;;;;;8.68;3.13;;;;;;;;;;4988242;28;20034;-81
2022/09/02 04:46:56;;;;;;;5.60;3.17;;;;;;;;;;4977559;28;20074;-81
2022/09/02 04:49:22;;;;;;;5.65;2.80;;;;;;;;;;4983797;28;20034;-80
2022/09/02 04:51:49;;;;;;;7.03;3.25;;;;;;;;;;4991683;28;20145;-81
2022/09/02 04:54:15;;;;;;;6.82;3.17;;;;;;;;;;4985387;28;20109;-81
2022/09/02 04:56:41;;;;;;;7.55;3.40;;;;;;;;;;4990070;28;20033;-81
2022/09/02 04:59:07;;;;;;;12.55;5.50;;;;;;;;;;4981701;28;20097;-81
2022/09/02 05:01:35;;;;;;;8.77;4.70;;;;;;;;;;4987024;28;20598;-81
2022/09/02 05:04:03;;;;;;;7.55;4.38;;;;;;;;;;4984745;28;20423;-80
2022/09/02 05:06:30;;;;;;;9.10;4.65;;;;;;;;;;4987147;28;20035;-81
2022/09/02 05:08:58;;;;;;;8.07;5.13;;;;;;;;;;4990348;28;20038;-80
2022/09/02 05:11:28;;;;;;;9.50;5.15;;;;;;;;;;4981107;28;20026;-81
2022/09/02 05:13:55;;;;;;;10.82;5.68;;;;;;;;;;4982425;28;20034;-80
2022/09/02 05:16:26;;;;;;;9.70;5.43;;;;;;;;;;4988202;28;20090;-80
2022/09/02 05:18:53;;;;;;;11.60;6.18;;;;;;;;;;4986729;28;20085;-80
2022/09/02 05:21:19;;;;;;;10.80;5.30;;;;;;;;;;4978487;28;20037;-80
2022/09/02 05:23:45;;;;;;;8.65;4.60;;;;;;;;;;4985473;28;20052;-81
2022/09/02 05:26:12;;;;;;;11.15;5.40;;;;;;;;;;4988191;28;20034;-80
2022/09/02 05:28:39;;;;;;;8.88;5.13;;;;;;;;;;4984469;28;20494;-80
2022/09/02 05:31:11;;;;;;;9.35;4.97;;;;;;;;;;4989050;28;20041;-79
2022/09/02 05:33:39;;;;;;;11.13;5.47;;;;;;;;;;4982666;28;20562;-80
2022/09/02 05:36:07;;;;;;;11.68;6.00;;;;;;;;;;4982295;28;20035;-80
2022/09/02 05:38:33;;;;;;;11.00;5.95;;;;;;;;;;4984178;28;20041;-80
2022/09/02 05:41:06;;;;;;;10.02;5.78;;;;;;;;;;4982842;28;20053;-81
2022/09/02 05:43:34;;;;;;;11.45;5.97;;;;;;;;;;4990412;28;20058;-80
2022/09/02 05:46:05;;;;;;;12.98;6.03;;;;;;;;;;4986174;28;20073;-80
2022/09/02 05:51:16;;;;;;;11.00;5.68;;;;;;;;;;4990318;28;20089;-80
2022/09/02 05:53:42;;;;;;;10.43;6.07;;;;;;;;;;4972214;28;20035;-80
2022/09/02 05:56:08;;;;;;;11.90;6.03;;;;;;;;;;4973263;28;20043;-80
2022/09/02 05:58:34;;;;;;;17.30;7.70;;;;;;;;;;4988351;28;20436;-80
2022/09/02 06:01:00;;;;;;;10.68;6.63;;;;;;;;;;4984500;28;20034;-81
2022/09/02 06:03:26;;;;;;;19.38;6.90;;;;;;;;;;4986681;28;20030;-81
2022/09/02 06:05:58;;;;;;;12.48;6.13;;;;;;;;;;4986345;28;20070;-80
2022/09/02 06:08:24;;;;;;;11.82;6.30;;;;;;;;;;4980498;28;20042;-80
2022/09/02 06:10:51;;;;;;;12.38;6.47;;;;;;;;;;4972835;28;20375;-81
2022/09/02 06:13:21;;;;;;;13.75;6.25;;;;;;;;;;4971614;28;20066;-80
2022/09/02 06:15:47;;;;;;;10.20;6.15;;;;;;;;;;4986677;28;20427;-80
2022/09/02 06:18:13;;;;;;;14.63;6.72;;;;;;;;;;4987765;28;20044;-80
2022/09/02 06:20:40;;;;;;;13.13;6.80;;;;;;;;;;4985496;28;20042;-80
2022/09/02 06:23:06;;;;;;;13.18;6.38;;;;;;;;;;4987757;28;20057;-81
2022/09/02 06:25:35;;;;;;;14.32;5.82;;;;;;;;;;4972817;28;20034;-81
2022/09/02 06:28:01;;;;;;;14.52;7.40;;;;;;;;;;4981614;28;20453;-80
2022/09/02 06:30:27;;;;;;;15.07;6.93;;;;;;;;;;4983271;28;20388;-80
2022/09/02 06:32:54;;;;;;;11.55;6.43;;;;;;;;;;4982788;28;20113;-81
2022/09/02 06:35:20;;;;;;;12.20;6.82;;;;;;;;;;4980364;28;20027;-81
2022/09/02 06:37:47;;;;;;;10.77;5.40;;;;;;;;;;4989989;28;20054;-81
2022/09/02 06:40:13;;;;;;;9.20;4.13;;;;;;;;;;4984860;28;20055;-80
2022/09/02 06:42:39;;;;;;;9.45;3.72;;;;;;;;;;4989496;28;20038;-80
2022/09/02 06:45:06;;;;;;;9.38;4.00;;;;;;;;;;4990521;28;20034;-81
2022/09/02 06:47:32;;;;;;;7.47;3.58;;;;;;;;;;4990383;28;20077;-81
2022/09/02 06:49:58;;;;;;;8.77;3.85;;;;;;;;;;4989822;28;20586;-81
2022/09/02 06:52:24;;;;;;;15.32;3.78;;;;;;;;;;4984017;28;20077;-81
2022/09/02 06:54:51;;;;;;;11.88;4.10;;;;;;;;;;4990438;28;20030;-81
2022/09/02 06:57:17;;;;;;;12.85;5.53;;;;;;;;;;4985103;28;20034;-81
2022/09/02 06:59:43;;;;;;;7.90;6.03;;;;;;;;;;4980132;28;20042;-81
2022/09/02 07:02:09;;;;;;;10.35;5.82;;;;;;;;;;4987173;28;20046;-81
2022/09/02 07:07:20;;;;;;;10.10;6.05;;;;;;;;;;4976477;28;20050;-81
2022/09/02 07:09:46;;;;;;;9.80;3.90;;;;;;;;;;4984097;28;20030;-81
2022/09/02 07:12:13;;;;;;;6.38;3.10;;;;;;;;;;4984631;28;20022;-81
2022/09/02 07:14:40;;;;;;;11.38;3.15;;;;;;;;;;4986552;28;20038;-82
2022/09/02 07:17:07;;;;;;;7.07;4.95;;;;;;;;;;4990333;28;20030;-81
2022/09/02 07:19:33;;;;;;;13.30;5.68;;;;;;;;;;4977121;28;20030;-81
2022/09/02 07:21:59;;;;;;;9.00;4.72;;;;;;;;;;4990210;28;20034;-81
2022/09/02 07:24:25;;;;;;;11.20;4.28;;;;;;;;;;4981535;28;20030;-81
2022/09/02 07:26:52;;;;;;;9.00;3.95;;;;;;;;;;4980341;28;20030;-81
2022/09/02 07:29:18;;;;;;;5.55;3.65;;;;;;;;;;4981234;28;20035;-81
2022/09/02 07:31:46;;;;;;;4.95;2.78;;;;;;;;;;4986734;28;20166;-81
2022/09/02 07:34:13;;;;;;;5.53;2.63;;;;;;;;;;4989916;28;20058;-81
2022/09/02 07:36:39;;;;;;;2.97;2.10;;;;;;;;;;4989649;28;20045;-81
2022/09/02 07:39:07;;;;;;;6.05;2.53;;;;;;;;;;4988451;28;20030;-81
2022/09/02 07:41:33;;;;;;;5.10;2.78;;;;;;;;;;4985153;28;20183;-82
2022/09/02 07:43:59;;;;;;;6.70;2.83;;;;;;;;;;4979899;28;20066;-81
2022/09/02 07:46:25;;;;;;;7.20;3.08;;;;;;;;;;4986909;28;20058;-81
2022/09/02 07:48:51;;;;;;;5.35;3.50;;;;;;;;;;4984412;28;20031;-82
2022/09/02 07:51:19;;;;;;;10.10;2.72;;;;;;;;;;4982543;28;20049;-81
2022/09/02 07:53:45;;;;;;;6.00;2.60;;;;;;;;;;4982324;28;20100;-82
2022/09/02 07:56:12;;;;;;;7.60;2.80;;;;;;;;;;4990978;28;20053;-82
2022/09/02 07:58:38;;;;;;;6.75;3.13;;;;;;;;;;4988916;28;20038;-81
2022/09/02 08:01:04;;;;;;;7.90;3.00;;;;;;;;;;4983841;28;20043;-81
2022/09/02 08:03:31;;;;;;;8.13;2.72;;;;;;;;;;4984869;28;20468;-82
2022/09/02 08:05:57;;;;;;;11.32;2.40;;;;;;;;;;4986077;28;20038;-81
2022/09/02 08:08:26;;;;;;;8.52;3.22;;;;;;;;;;4989377;28;20026;-82
2022/09/02 08:10:53;;;;;;;4.93;2.58;;;;;;;;;;4982746;28;20042;-81
2022/09/02 08:13:19;;;;;;;5.72;3.10;;;;;;;;;;4978028;28;20060;-81
2022/09/02 08:15:46;;;;;;;7.97;2.70;;;;;;;;;;4983728;28;20038;-82
2022/09/02 08:18:12;;;;;;;7.30;2.80;;;;;;;;;;4989859;28;20038;-81
2022/09/02 08:20:38;;;;;;;5.35;2.20;;;;;;;;;;4977383;28;20074;-81
2022/09/02 08:23:08;;;;;;;6.90;2.40;;;;;;;;;;4978863;28;20031;-82
2022/09/02 08:25:34;;;;;;;4.72;2.45;;;;;;;;;;4983741;28;20046;-82
2022/09/02 08:28:01;;;;;;;5.97;2.40;;;;;;;;;;4981400;28;20045;-81
2022/09/02 08:30:27;;;;;;;6.25;2.53;;;;;;;;;;4986215;28;20577;-81
2022/09/02 08:32:53;;;;;;;3.97;1.90;;;;;;;;;;4988774;28;20026;-81
2022/09/02 08:35:19;;;;;;;5.82;2.75;;;;;;;;;;4981264;28;20050;-82
2022/09/02 08:37:46;;;;;;;4.32;2.70;;;;;;;;;;4984371;28;20065;-82
2022/09/02 08:40:22;;;;;;;8.50;2.42;;;;;;;;;;4988539;28;20077;-81
2022/09/02 08:42:50;;;;;;;6.78;2.38;;;;;;;;;;4983783;28;20472;-82
2022/09/02 08:45:25;;;;;;;4.20;2.25;;;;;;;;;;4979107;28;20049;-81
2022/09/02 08:47:58;;;;;;;6.45;2.75;;;;;;;;;;4978882;28;20538;-81
2022/09/02 08:50:24;;;;;;;6.85;3.35;;;;;;;;;;4985460;28;20782;-81
2022/09/02 08:53:08;;;;;;;4.80;2.70;;;;;;;;;;4981640;28;20022;-81
2022/09/02 08:55:38;;;;;;;5.97;2.40;;;;;;;;;;4986670;28;20039;-82
2022/09/02 08:58:04;;;;;;;8.25;2.70;;;;;;;;;;4971724;28;20380;-82
2022/09/02 09:00:34;;;;;;;4.38;2.25;;;;;;;;;;4985218;28;20085;-81
2022/09/02 09:03:00;;;;;;;6.32;2.55;;;;;;;;;;4985136;28;20057;-81
2022/09/02 09:05:42;;;;;;;6.32;2.17;;;;;;;;;;4985236;28;20463;-82
2022/09/02 09:08:20;;;;;;;9.50;2.45;;;;;;;;;;4987256;28;20026;-82
2022/09/02 09:10:55;;;;;;;5.95;2.13;;;;;;;;;;4989260;28;20035;-81
2022/09/02 09:13:33;;;;;;;7.20;2.33;;;;;;;;;;4988970;28;20049;-81
2022/09/02 09:16:27;;;;;;;7.68;2.60;;;;;;;;;;4986401;28;20484;-81
2022/09/02 09:18:53;;;;;;;4.75;2.47;;;;;;;;;;4986671;28;20106;-81
2022/09/02 09:21:19;;;;;;;5.55;2.70;;;;;;;;;;4989519;28;20530;-81
2022/09/02 09:23:46;;;;;;;8.93;2.97;;;;;;;;;;4984679;28;20105;-81
2022/09/02 09:26:21;;;;;;;7.50;2.30;;;;;;;;;;4983410;28;20070;-82
2022/09/02 09:28:47;;;;;;;6.78;2.88;;;;;;;;;;4989438;28;20034;-81
2022/09/02 09:31:16;;;;;;;5.28;2.65;;;;;;;;;;4987413;28;20045;-82
2022/09/02 09:34:05;;;;;;;11.82;3.00;;;;;;;;;;4982045;28;20030;-82
2022/09/02 09:36:40;;;;;;;7.72;2.50;;;;;;;;;;4968255;28;20057;-81
2022/09/02 09:39:18;;;;;;;6.00;2.50;;;;;;;;;;4987182;28;20038;-82
2022/09/02 09:41:45;;;;;;;4.65;2.58;;;;;;;;;;4984132;28;20049;-82
2022/09/02 09:44:27;;;;;;;8.10;2.45;;;;;;;;;;4986580;28;20033;-81
2022/09/02 09:46:53;;;;;;;;;;;;;;;;;;4987370;28;20062;-81
2022/09/02 09:49:26;;;;;;;5.65;2.38;;;;;;;;;;4983313;28;19964;-82
2022/09/02 09:51:55;;;;;;;12.95;3.03;;;;;;;;;;4984614;28;20027;-82
2022/09/02 09:54:25;;;;;;;8.68;2.88;;;;;;;;;;4985474;28;20625;-81
2022/09/02 09:56:51;;;;;;;7.90;2.30;;;;;;;;;;4982855;28;20219;-81
2022/09/02 09:59:40;;;;;;;13.00;3.03;;;;;;;;;;4985394;28;20057;-81
2022/09/02 10:02:06;;;;;;;6.47;2.60;;;;;;;;;;4988374;28;20483;-82
2022/09/02 10:04:32;;;;;;;8.43;3.75;;;;;;;;;;4987627;28;20030;-81
2022/09/02 10:06:59;;;;;;;6.25;2.63;;;;;;;;;;4990446;28;20132;-81
2022/09/02 10:09:25;;;;;;;7.22;2.70;;;;;;;;;;4990378;28;20034;-81
2022/09/02 10:11:53;;;;;;;7.32;2.70;;;;;;;;;;4988352;28;20034;-82
2022/09/02 10:14:19;;;;;;;6.25;2.50;;;;;;;;;;4984431;28;20522;-82
2022/09/02 10:16:52;;;;;;;5.22;2.47;;;;;;;;;;4985186;28;20045;-82
2022/09/02 10:19:25;;;;;;;12.07;2.50;;;;;;;;;;4982738;28;20038;-82
2022/09/02 10:21:58;;;;;;;4.82;2.63;;;;;;;;;;4979106;28;20140;-82
2022/09/02 10:24:24;;;;;;;4.13;2.50;;;;;;;;;;4986358;28;20065;-82
2022/09/02 10:26:52;;;;;;;4.57;2.63;;;;;;;;;;4984689;28;20065;-82
2022/09/02 10:29:24;;;;;;;8.40;2.80;;;;;;;;;;4990254;28;20041;-80
2022/09/02 10:31:58;;;;;;;4.78;2.63;;;;;;;;;;4989547;28;20081;-79
2022/09/02 10:34:39;;;;;;;7.85;2.85;;;;;;;;;;4983846;28;20026;-81
2022/09/02 10:37:11;;;;;;;4.88;2.33;;;;;;;;;;4976070;28;20045;-81
2022/09/02 10:39:44;;;;;;;6.68;2.58;;;;;;;;;;4990363;28;20034;-82
2022/09/02 10:42:21;;;;;;;6.13;2.45;;;;;;;;;;4990991;28;20026;-82
2022/09/02 10:44:56;;;;;;;6.35;2.55;;;;;;;;;;4987413;28;20126;-82
2022/09/02 10:47:34;;;;;;;8.50;2.80;;;;;;;;;;4990170;28;20054;-82
2022/09/02 10:50:20;;;;;;;6.22;3.05;;;;;;;;;;4989307;28;20472;-82
2022/09/02 10:52:46;;;;;;;5.85;2.72;;;;;;;;;;4987347;28;20518;-82
2022/09/02 10:55:15;;;;;;;5.53;2.60;;;;;;;;;;4988585;28;20026;-82
2022/09/02 10:57:52;;;;;;;4.78;2.20;;;;;;;;;;4984532;28;20022;-81
2022/09/02 11:00:19;;;;;;;4.35;2.25;;;;;;;;;;4981894;28;20069;-81
2022/09/02 11:02:48;;;;;;;7.53;2.38;;;;;;;;;;4984829;28;20080;-82
2022/09/02 11:05:17;;;;;;;6.75;2.50;;;;;;;;;;4983133;28;20121;-82
2022/09/02 11:07:46;;;;;;;7.00;2.58;;;;;;;;;;4984655;28;20023;-81
2022/09/02 11:10:16;;;;;;;7.78;3.20;;;;;;;;;;4983626;28;20683;-81
2022/09/02 11:12:47;;;;;;;61.78;14.85;;;;;;;;;;4990121;28;20682;-81
2022/09/02 11:15:20;;;;;;;23.75;8.32;;;;;;;;;;4987011;28;20739;-81
2022/09/02 11:17:52;;;;;;;14.88;5.55;;;;;;;;;;4979823;28;20030;-82
2022/09/02 11:20:29;;;;;;;9.07;4.07;;;;;;;;;;4985086;28;20084;-83
2022/09/02 11:22:58;;;;;;;7.38;4.05;;;;;;;;;;4990457;28;20109;-83
2022/09/02 11:25:25;;;;;;;10.13;4.25;;;;;;;;;;4987916;28;20050;-82
2022/09/02 11:27:59;;;;;;;8.77;4.40;;;;;;;;;;4989245;28;20034;-82
2022/09/02 11:30:31;;;;;;;11.40;4.47;;;;;;;;;;4990035;28;20033;-82
2022/09/02 11:33:17;;;;;;;8.07;4.30;;;;;;;;;;4984309;28;20042;-82
2022/09/02 11:35:43;;;;;;;9.50;4.22;;;;;;;;;;4986140;28;20077;-82
2022/09/02 11:38:09;;;;;;;8.35;4.38;;;;;;;;;;4978973;28;20039;-81
2022/09/02 11:40:38;;;;;;;8.30;4.65;;;;;;;;;;4989656;28;20050;-82
2022/09/02 11:43:07;;;;;;;7.90;4.80;;;;;;;;;;4981391;28;20038;-81
2022/09/02 11:45:38;;;;;;;10.50;4.68;;;;;;;;;;4981468;28;20061;-81
2022/09/02 11:48:04;;;;;;;8.45;4.68;;;;;;;;;;4984233;28;20081;-82
2022/09/02 11:50:48;;;;;;;11.30;4.57;;;;;;;;;;4987799;28;20076;-81
2022/09/02 11:53:24;;;;;;;6.63;3.28;;;;;;;;;;4986840;28;20091;-82
2022/09/02 11:55:55;;;;;;;5.32;3.60;;;;;;;;;;4987675;28;20073;-82
2022/09/02 11:58:35;;;;;;;5.60;2.63;;;;;;;;;;4989051;28;20045;-81
2022/09/02 12:01:24;;;;;;;5.50;2.60;;;;;;;;;;4986294;28;20072;-81
2022/09/02 12:03:53;;;;;;;6.47;2.88;;;;;;;;;;4978882;28;20093;-82
2022/09/02 12:06:20;;;;;;;5.70;2.97;;;;;;;;;;4985205;28;20034;-82
2022/09/02 12:08:47;;;;;;;6.00;2.83;;;;;;;;;;4975715;28;20041;-82
2022/09/02 12:11:31;;;;;;;6.60;2.78;;;;;;;;;;4979086;28;20030;-82
2022/09/02 12:13:58;;;;;;;5.38;2.75;;;;;;;;;;4977478;28;20110;-82
2022/09/02 12:16:35;;;;;;;5.15;3.13;;;;;;;;;;4981249;28;20027;-81
2022/09/02 12:19:06;;;;;;;3.97;2.10;;;;;;;;;;4988941;28;20031;-82
2022/09/02 12:21:34;;;;;;;6.07;2.80;;;;;;;;;;4986408;28;20057;-82
2022/09/02 12:24:00;;;;;;;4.55;1.90;;;;;;;;;;4982361;28;20468;-82
2022/09/02 12:26:38;;;;;;;4.03;2.30;;;;;;;;;;4979427;28;20086;-82
2022/09/02 12:29:10;;;;;;;5.82;2.55;;;;;;;;;;4982602;28;20034;-82
2022/09/02 12:31:39;;;;;;;3.45;2.22;;;;;;;;;;4987118;28;20518;-81
2022/09/02 12:34:27;;;;;;;5.68;2.58;;;;;;;;;;4980018;28;20030;-82
2022/09/02 12:36:56;;;;;;;3.75;2.25;;;;;;;;;;4977542;28;20070;-82
2022/09/02 12:39:22;;;;;;;5.18;2.75;;;;;;;;;;4980670;28;20435;-82
2022/09/02 12:42:09;;;;;;;5.38;2.70;;;;;;;;;;4979636;28;20041;-82
2022/09/02 12:44:53;;;;;;;5.82;2.60;;;;;;;;;;4968252;28;20136;-81
2022/09/02 12:47:22;;;;;;;3.97;2.25;;;;;;;;;;4981372;28;20089;-80
2022/09/02 12:50:00;;;;;;;4.85;2.30;;;;;;;;;;4988082;28;20035;-82
2022/09/02 12:52:35;;;;;;;5.50;2.42;;;;;;;;;;4984280;28;20035;-82
2022/09/02 12:55:22;;;;;;;4.97;2.90;;;;;;;;;;4982436;28;20031;-82
2022/09/02 12:57:50;;;;;;;4.05;2.08;;;;;;;;;;4988039;28;20200;-82
2022/09/02 13:00:35;;;;;;;3.85;2.00;;;;;;;;;;4982339;28;20027;-81
2022/09/02 13:03:09;;;;;;;4.22;1.83;;;;;;;;;;4988688;28;20113;-81
2022/09/02 13:05:50;;;;;;;5.00;2.15;;;;;;;;;;4990736;28;20049;-81
2022/09/02 13:08:40;;;;;;;5.60;2.73;;;;;;;;;;4983255;28;20042;-81
2022/09/02 13:11:06;;;;;;;7.35;2.63;;;;;;;;;;4991924;28;20283;-81
2022/09/02 13:13:32;;;;;;;5.85;2.45;;;;;;;;;;4977524;28;20026;-82
2022/09/02 13:16:03;;;;;;;7.38;2.50;;;;;;;;;;4979931;28;20046;-82
2022/09/02 13:18:29;;;;;;;;;;;;;;;;;;4985268;28;20484;-82
2022/09/02 13:21:14;;;;;;;5.30;2.00;;;;;;;;;;4983419;28;19925;-82
2022/09/02 13:23:46;;;;;;;3.80;1.65;;;;;;;;;;4982857;28;20789;-82
2022/09/02 13:26:21;;;;;;;5.78;2.50;;;;;;;;;;4983332;28;20097;-82
2022/09/02 13:29:10;;;;;;;6.43;2.85;;;;;;;;;;4991062;28;20038;-82
2022/09/02 13:31:37;;;;;;;6.57;2.50;;;;;;;;;;4984196;28;20492;-82
2022/09/02 13:34:04;;;;;;;3.80;1.98;;;;;;;;;;4991395;28;20027;-82
2022/09/02 13:36:37;;;;;;;4.97;2.15;;;;;;;;;;4991150;28;20037;-82
2022/09/02 13:39:19;;;;;;;4.43;2.17;;;;;;;;;;4990551;28;20415;-82
2022/09/02 13:41:46;;;;;;;5.35;2.47;;;;;;;;;;4989159;28;20108;-82
2022/09/02 13:44:21;;;;;;;6.07;1.98;;;;;;;;;;4990956;28;20030;-82
2022/09/02 13:46:49;;;;;;;5.70;2.15;;;;;;;;;;4983604;28;20070;-82
2022/09/02 13:49:23;;;;;;;6.43;2.58;;;;;;;;;;4978916;28;20035;-82
2022/09/02 13:51:50;;;;;;;4.15;2.28;;;;;;;;;;4989256;28;20031;-82
2022/09/02 13:54:22;;;;;;;5.75;2.30;;;;;;;;;;4981327;28;20038;-82
2022/09/02 13:56:48;;;;;;;5.35;2.45;;;;;;;;;;4986842;28;20038;-82
2022/09/02 13:59:30;;;;;;;6.35;2.45;;;;;;;;;;4990021;28;20361;-82
2022/09/02 14:01:56;;;;;;;3.17;1.80;;;;;;;;;;4982342;28;20054;-82
2022/09/02 14:04:22;;;;;;;5.45;2.00;;;;;;;;;;4988519;28;20072;-82
2022/09/02 14:06:49;;;;;;;3.90;1.85;;;;;;;;;;4988956;28;20038;-82
2022/09/02 14:09:19;;;;;;;3.53;1.58;;;;;;;;;;4988107;28;20034;-82
2022/09/02 14:11:47;;;;;;;6.40;2.20;;;;;;;;;;4980691;28;20078;-82
2022/09/02 14:14:14;;;;;;;4.95;1.67;;;;;;;;;;4980672;28;20058;-82
2022/09/02 14:16:40;;;;;;;6.07;1.85;;;;;;;;;;4983876;28;20039;-82
2022/09/02 14:19:23;;;;;;;4.57;1.33;;;;;;;;;;4986472;28;20074;-82
2022/09/02 14:21:50;;;;;;;3.55;1.80;;;;;;;;;;4986601;28;20121;-82
2022/09/02 14:24:21;;;;;;;3.08;1.63;;;;;;;;;;4986737;28;20038;-82
2022/09/02 14:26:48;;;;;;;9.82;2.30;;;;;;;;;;4984026;28;20469;-82
2022/09/02 14:29:15;;;;;;;4.25;1.60;;;;;;;;;;4988054;28;20034;-82
2022/09/02 14:31:42;;;;;;;4.78;1.67;;;;;;;;;;4981887;28;20496;-82
2022/09/02 14:34:26;;;;;;;6.07;1.70;;;;;;;;;;4987259;28;20407;-82
2022/09/02 14:36:52;;;;;;;4.25;1.52;;;;;;;;;;4979683;28;20037;-82
2022/09/02 14:39:19;;;;;;;7.32;2.08;;;;;;;;;;4985051;28;20038;-82
2022/09/02 14:41:46;;;;;;;4.68;1.50;;;;;;;;;;4980563;28;20596;-82
2022/09/02 14:44:16;;;;;;;4.78;1.98;;;;;;;;;;4986064;28;20031;-82
2022/09/02 14:46:46;;;;;;;7.10;1.75;;;;;;;;;;4977385;28;20058;-82
2022/09/02 14:49:18;;;;;;;4.60;1.75;;;;;;;;;;4978841;28;20059;-82
2022/09/02 14:51:46;;;;;;;6.88;1.63;;;;;;;;;;4986157;28;20650;-81
2022/09/02 14:54:32;;;;;;;4.60;1.60;;;;;;;;;;4983333;28;20034;-81
2022/09/02 14:56:58;;;;;;;2.85;1.38;;;;;;;;;;4990268;28;20038;-81
2022/09/02 14:59:24;;;;;;;6.90;2.65;;;;;;;;;;4990170;28;20056;-81